sensor_id;sensor_type;location;lat;lon;timestamp;pressure;altitude;pressure_sealevel;temperature;humidity
53679;BME280;40119;52.030;4.708;2022-08-25T00:00:35;101773.85;;;24.18;54.88
53679;BME280;40119;52.030;4.708;2022-08-25T00:02:39;101767.51;;;27.29;48.17
53679;BME280;40119;52.030;4.708;2022-08-25T00:04:43;101764.54;;;26.91;48.78
53679;BME280;40119;52.030;4.708;2022-08-25T00:06:48;101764.68;;;27.29;48.07
53679;BME280;40119;52.030;4.708;2022-08-25T00:08:53;101760.93;;;27.85;46.83
53679;BME280;40119;52.030;4.708;2022-08-25T00:10:57;101762.39;;;27.05;48.36
53679;BME280;40119;52.030;4.708;2022-08-25T00:13:03;101761.99;;;26.78;48.53
53679;BME280;40119;52.030;4.708;2022-08-25T00:15:08;101758.74;;;27.84;47.37
53679;BME280;40119;52.030;4.708;2022-08-25T00:17:13;101758.40;;;27.87;47.45
53679;BME280;40119;52.030;4.708;2022-08-25T00:19:21;101758.04;;;26.81;49.09
53679;BME280;40119;52.030;4.708;2022-08-25T00:21:26;101758.00;;;27.30;47.94
53679;BME280;40119;52.030;4.708;2022-08-25T00:23:31;101758.98;;;25.58;51.71
53679;BME280;40119;52.030;4.708;2022-08-25T00:25:35;101755.99;;;27.18;48.72
53679;BME280;40119;52.030;4.708;2022-08-25T00:27:40;101754.86;;;27.56;47.94
53679;BME280;40119;52.030;4.708;2022-08-25T00:29:44;101760.41;;;25.26;52.09
53679;BME280;40119;52.030;4.708;2022-08-25T00:31:49;101756.26;;;26.64;49.68
53679;BME280;40119;52.030;4.708;2022-08-25T00:33:53;101756.51;;;27.16;48.62
53679;BME280;40119;52.030;4.708;2022-08-25T00:35:59;101754.00;;;27.31;48.23
53679;BME280;40119;52.030;4.708;2022-08-25T00:38:03;101753.84;;;27.98;46.44
53679;BME280;40119;52.030;4.708;2022-08-25T00:40:09;101752.26;;;27.39;48.10
53679;BME280;40119;52.030;4.708;2022-08-25T00:42:14;101754.54;;;27.19;48.26
53679;BME280;40119;52.030;4.708;2022-08-25T00:44:19;101754.44;;;26.01;52.06
53679;BME280;40119;52.030;4.708;2022-08-25T00:46:28;101750.14;;;27.15;48.49
53679;BME280;40119;52.030;4.708;2022-08-25T00:48:33;101748.44;;;25.56;51.66
53679;BME280;40119;52.030;4.708;2022-08-25T00:50:37;101745.42;;;26.08;50.89
53679;BME280;40119;52.030;4.708;2022-08-25T00:52:44;101744.03;;;25.60;52.68
53679;BME280;40119;52.030;4.708;2022-08-25T00:54:52;101741.86;;;26.34;50.50
53679;BME280;40119;52.030;4.708;2022-08-25T00:56:59;101744.62;;;27.09;48.96
53679;BME280;40119;52.030;4.708;2022-08-25T00:59:04;101741.46;;;27.11;48.36
53679;BME280;40119;52.030;4.708;2022-08-25T01:01:08;101736.57;;;26.96;49.27
53679;BME280;40119;52.030;4.708;2022-08-25T01:03:13;101736.60;;;26.89;48.76
53679;BME280;40119;52.030;4.708;2022-08-25T01:05:18;101731.07;;;26.65;49.00
53679;BME280;40119;52.030;4.708;2022-08-25T01:07:23;101732.28;;;26.45;49.46
53679;BME280;40119;52.030;4.708;2022-08-25T01:09:28;101733.70;;;27.31;47.52
53679;BME280;40119;52.030;4.708;2022-08-25T01:11:33;101732.31;;;27.43;47.33
53679;BME280;40119;52.030;4.708;2022-08-25T01:13:42;101729.97;;;26.67;49.17
53679;BME280;40119;52.030;4.708;2022-08-25T01:15:49;101727.86;;;27.99;46.11
53679;BME280;40119;52.030;4.708;2022-08-25T01:17:56;101726.30;;;27.89;45.32
53679;BME280;40119;52.030;4.708;2022-08-25T01:20:01;101724.83;;;26.21;48.06
53679;BME280;40119;52.030;4.708;2022-08-25T01:22:06;101724.37;;;28.22;45.47
53679;BME280;40119;52.030;4.708;2022-08-25T01:24:22;101724.67;;;25.72;48.61
53679;BME280;40119;52.030;4.708;2022-08-25T01:26:31;101722.92;;;27.97;44.76
53679;BME280;40119;52.030;4.708;2022-08-25T01:28:38;101726.53;;;27.07;47.17
53679;BME280;40119;52.030;4.708;2022-08-25T01:30:43;101725.92;;;26.81;47.25
53679;BME280;40119;52.030;4.708;2022-08-25T01:32:47;101726.89;;;26.97;47.21
53679;BME280;40119;52.030;4.708;2022-08-25T01:34:51;101727.44;;;28.24;44.78
53679;BME280;40119;52.030;4.708;2022-08-25T01:36:57;101728.67;;;25.49;49.45
53679;BME280;40119;52.030;4.708;2022-08-25T01:39:03;101728.95;;;23.82;53.57
53679;BME280;40119;52.030;4.708;2022-08-25T01:41:08;101723.78;;;26.22;48.93
53679;BME280;40119;52.030;4.708;2022-08-25T01:43:24;101724.60;;;25.51;49.97
53679;BME280;40119;52.030;4.708;2022-08-25T01:45:29;101719.49;;;26.36;48.23
53679;BME280;40119;52.030;4.708;2022-08-25T01:47:34;101719.88;;;26.78;47.28
53679;BME280;40119;52.030;4.708;2022-08-25T01:49:38;101716.57;;;25.84;48.48
53679;BME280;40119;52.030;4.708;2022-08-25T01:51:47;101712.61;;;26.66;48.02
53679;BME280;40119;52.030;4.708;2022-08-25T01:53:51;101713.64;;;24.84;51.24
53679;BME280;40119;52.030;4.708;2022-08-25T01:55:56;101713.17;;;25.34;51.28
53679;BME280;40119;52.030;4.708;2022-08-25T01:58:00;101711.64;;;26.36;48.92
53679;BME280;40119;52.030;4.708;2022-08-25T02:00:07;101716.99;;;24.46;52.52
53679;BME280;40119;52.030;4.708;2022-08-25T02:02:12;101708.46;;;26.06;49.67
53679;BME280;40119;52.030;4.708;2022-08-25T02:04:16;101712.10;;;24.42;53.46
53679;BME280;40119;52.030;4.708;2022-08-25T02:06:23;101707.18;;;26.20;49.57
53679;BME280;40119;52.030;4.708;2022-08-25T02:08:28;101708.49;;;25.04;51.37
53679;BME280;40119;52.030;4.708;2022-08-25T02:10:33;101711.92;;;25.37;50.95
53679;BME280;40119;52.030;4.708;2022-08-25T02:12:37;101709.27;;;26.22;49.33
53679;BME280;40119;52.030;4.708;2022-08-25T02:14:42;101712.19;;;25.45;50.53
53679;BME280;40119;52.030;4.708;2022-08-25T02:16:49;101708.57;;;24.54;52.25
53679;BME280;40119;52.030;4.708;2022-08-25T02:18:54;101708.09;;;24.67;52.33
53679;BME280;40119;52.030;4.708;2022-08-25T02:20:59;101699.61;;;25.99;49.23
53679;BME280;40119;52.030;4.708;2022-08-25T02:23:04;101697.58;;;25.46;50.79
53679;BME280;40119;52.030;4.708;2022-08-25T02:25:08;101696.02;;;25.69;50.30
53679;BME280;40119;52.030;4.708;2022-08-25T02:27:13;101693.36;;;25.65;49.87
53679;BME280;40119;52.030;4.708;2022-08-25T02:29:17;101698.56;;;24.50;53.19
53679;BME280;40119;52.030;4.708;2022-08-25T02:31:24;101703.42;;;23.27;56.08
53679;BME280;40119;52.030;4.708;2022-08-25T02:33:28;101696.95;;;26.11;49.05
53679;BME280;40119;52.030;4.708;2022-08-25T02:35:33;101698.92;;;23.23;55.13
53679;BME280;40119;52.030;4.708;2022-08-25T02:37:38;101696.15;;;25.33;50.86
53679;BME280;40119;52.030;4.708;2022-08-25T02:39:42;101691.72;;;25.23;50.52
53679;BME280;40119;52.030;4.708;2022-08-25T02:41:46;101695.28;;;25.75;50.53
53679;BME280;40119;52.030;4.708;2022-08-25T02:43:51;101683.88;;;26.85;47.48
53679;BME280;40119;52.030;4.708;2022-08-25T02:45:55;101680.24;;;26.55;47.38
53679;BME280;40119;52.030;4.708;2022-08-25T02:47:59;101676.24;;;27.35;46.08
53679;BME280;40119;52.030;4.708;2022-08-25T02:50:05;101677.86;;;24.45;51.43
53679;BME280;40119;52.030;4.708;2022-08-25T02:52:10;101671.96;;;27.08;46.55
53679;BME280;40119;52.030;4.708;2022-08-25T02:54:14;101664.37;;;26.50;47.15
53679;BME280;40119;52.030;4.708;2022-08-25T02:56:19;101666.00;;;26.28;47.55
53679;BME280;40119;52.030;4.708;2022-08-25T02:58:23;101663.67;;;24.99;49.08
53679;BME280;40119;52.030;4.708;2022-08-25T03:00:28;101663.43;;;25.08;49.53
53679;BME280;40119;52.030;4.708;2022-08-25T03:02:32;101670.26;;;23.47;51.98
53679;BME280;40119;52.030;4.708;2022-08-25T03:04:37;101667.54;;;25.78;48.53
53679;BME280;40119;52.030;4.708;2022-08-25T03:06:41;101663.18;;;27.49;43.95
53679;BME280;40119;52.030;4.708;2022-08-25T03:08:46;101661.60;;;25.42;47.46
53679;BME280;40119;52.030;4.708;2022-08-25T03:10:51;101656.01;;;26.95;44.73
53679;BME280;40119;52.030;4.708;2022-08-25T03:12:55;101656.82;;;27.70;42.99
53679;BME280;40119;52.030;4.708;2022-08-25T03:15:00;101654.90;;;28.28;42.21
53679;BME280;40119;52.030;4.708;2022-08-25T03:17:04;101652.83;;;28.42;41.36
53679;BME280;40119;52.030;4.708;2022-08-25T03:19:09;101649.81;;;25.76;45.31
53679;BME280;40119;52.030;4.708;2022-08-25T03:21:14;101648.67;;;26.17;45.45
53679;BME280;40119;52.030;4.708;2022-08-25T03:23:19;101649.16;;;27.28;42.75
53679;BME280;40119;52.030;4.708;2022-08-25T03:25:23;101647.03;;;26.56;43.65
53679;BME280;40119;52.030;4.708;2022-08-25T03:27:28;101643.81;;;27.92;41.42
53679;BME280;40119;52.030;4.708;2022-08-25T03:29:32;101642.45;;;26.63;43.25
53679;BME280;40119;52.030;4.708;2022-08-25T03:31:37;101639.90;;;27.39;41.54
53679;BME280;40119;52.030;4.708;2022-08-25T03:33:41;101641.57;;;24.50;47.02
53679;BME280;40119;52.030;4.708;2022-08-25T03:35:46;101635.47;;;27.85;41.29
53679;BME280;40119;52.030;4.708;2022-08-25T03:37:54;101632.80;;;27.13;41.97
53679;BME280;40119;52.030;4.708;2022-08-25T03:40:00;101632.23;;;26.84;42.62
53679;BME280;40119;52.030;4.708;2022-08-25T03:42:04;101633.12;;;24.27;46.71
53679;BME280;40119;52.030;4.708;2022-08-25T03:44:09;101626.28;;;26.09;43.01
53679;BME280;40119;52.030;4.708;2022-08-25T03:46:17;101624.46;;;27.68;40.49
53679;BME280;40119;52.030;4.708;2022-08-25T03:48:22;101624.27;;;26.59;42.09
53679;BME280;40119;52.030;4.708;2022-08-25T03:50:27;101621.16;;;27.44;40.60
53679;BME280;40119;52.030;4.708;2022-08-25T03:52:31;101615.77;;;26.16;42.48
53679;BME280;40119;52.030;4.708;2022-08-25T03:54:35;101612.09;;;27.90;38.99
53679;BME280;40119;52.030;4.708;2022-08-25T03:56:40;101606.02;;;26.09;42.34
53679;BME280;40119;52.030;4.708;2022-08-25T03:58:45;101606.39;;;27.86;39.55
53679;BME280;40119;52.030;4.708;2022-08-25T04:00:49;101605.15;;;27.58;39.41
53679;BME280;40119;52.030;4.708;2022-08-25T04:02:53;101604.80;;;25.18;43.68
53679;BME280;40119;52.030;4.708;2022-08-25T04:04:58;101605.97;;;24.76;43.00
53679;BME280;40119;52.030;4.708;2022-08-25T04:07:02;101603.54;;;27.42;38.83
53679;BME280;40119;52.030;4.708;2022-08-25T04:09:07;101604.37;;;26.19;40.24
53679;BME280;40119;52.030;4.708;2022-08-25T04:11:14;101604.53;;;27.42;37.75
53679;BME280;40119;52.030;4.708;2022-08-25T04:13:19;101601.81;;;27.85;37.99
53679;BME280;40119;52.030;4.708;2022-08-25T04:15:24;101599.91;;;26.09;38.92
53679;BME280;40119;52.030;4.708;2022-08-25T04:17:28;101597.02;;;27.81;36.29
53679;BME280;40119;52.030;4.708;2022-08-25T04:19:33;101596.91;;;26.55;37.98
53679;BME280;40119;52.030;4.708;2022-08-25T04:21:38;101594.99;;;27.83;36.16
53679;BME280;40119;52.030;4.708;2022-08-25T04:23:44;101594.44;;;27.00;37.20
53679;BME280;40119;52.030;4.708;2022-08-25T04:25:49;101594.46;;;27.57;36.23
53679;BME280;40119;52.030;4.708;2022-08-25T04:27:54;101591.85;;;28.78;35.07
53679;BME280;40119;52.030;4.708;2022-08-25T04:29:58;101592.10;;;27.56;36.21
53679;BME280;40119;52.030;4.708;2022-08-25T04:32:03;101595.55;;;23.34;43.21
53679;BME280;40119;52.030;4.708;2022-08-25T04:34:08;101592.44;;;22.90;44.17
53679;BME280;40119;52.030;4.708;2022-08-25T04:36:14;101587.64;;;26.85;37.34
53679;BME280;40119;52.030;4.708;2022-08-25T04:38:19;101587.67;;;27.52;36.05
53679;BME280;40119;52.030;4.708;2022-08-25T04:40:24;101593.33;;;25.05;40.06
53679;BME280;40119;52.030;4.708;2022-08-25T04:42:28;101596.07;;;26.53;37.05
53679;BME280;40119;52.030;4.708;2022-08-25T04:44:33;101593.58;;;26.58;37.25
53679;BME280;40119;52.030;4.708;2022-08-25T04:46:38;101594.65;;;26.27;37.36
53679;BME280;40119;52.030;4.708;2022-08-25T04:48:42;101598.85;;;21.97;43.31
53679;BME280;40119;52.030;4.708;2022-08-25T04:50:47;101589.69;;;25.70;38.28
53679;BME280;40119;52.030;4.708;2022-08-25T04:52:51;101589.62;;;27.40;36.04
53679;BME280;40119;52.030;4.708;2022-08-25T04:54:56;101592.66;;;23.86;40.21
53679;BME280;40119;52.030;4.708;2022-08-25T04:57:00;101591.50;;;26.93;35.89
53679;BME280;40119;52.030;4.708;2022-08-25T04:59:07;101590.23;;;26.02;37.01
53679;BME280;40119;52.030;4.708;2022-08-25T05:01:14;101595.98;;;23.31;41.10
53679;BME280;40119;52.030;4.708;2022-08-25T05:03:20;101594.96;;;26.74;36.30
53679;BME280;40119;52.030;4.708;2022-08-25T05:05:24;101598.13;;;26.32;36.83
53679;BME280;40119;52.030;4.708;2022-08-25T05:07:29;101604.56;;;20.64;45.94
53679;BME280;40119;52.030;4.708;2022-08-25T05:09:33;101599.45;;;23.96;41.00
53679;BME280;40119;52.030;4.708;2022-08-25T05:11:38;101595.58;;;26.52;37.19
53679;BME280;40119;52.030;4.708;2022-08-25T05:13:43;101595.45;;;26.75;35.60
53679;BME280;40119;52.030;4.708;2022-08-25T05:15:52;101595.19;;;27.23;35.51
53679;BME280;40119;52.030;4.708;2022-08-25T05:17:56;101596.07;;;24.43;39.65
53679;BME280;40119;52.030;4.708;2022-08-25T05:20:01;101597.27;;;24.01;40.37
53679;BME280;40119;52.030;4.708;2022-08-25T05:22:05;101599.37;;;24.32;39.81
53679;BME280;40119;52.030;4.708;2022-08-25T05:24:09;101598.89;;;25.74;37.45
53679;BME280;40119;52.030;4.708;2022-08-25T05:26:15;101610.62;;;21.95;43.62
53679;BME280;40119;52.030;4.708;2022-08-25T05:28:21;101607.82;;;24.21;40.35
53679;BME280;40119;52.030;4.708;2022-08-25T05:30:25;101611.83;;;22.15;43.29
53679;BME280;40119;52.030;4.708;2022-08-25T05:32:30;101617.09;;;19.26;49.01
53679;BME280;40119;52.030;4.708;2022-08-25T05:34:34;101613.23;;;22.59;43.01
53679;BME280;40119;52.030;4.708;2022-08-25T05:36:39;101614.02;;;20.75;46.50
53679;BME280;40119;52.030;4.708;2022-08-25T05:38:43;101612.43;;;19.69;47.87
53679;BME280;40119;52.030;4.708;2022-08-25T05:40:51;101607.07;;;25.62;38.28
53679;BME280;40119;52.030;4.708;2022-08-25T05:42:55;101616.36;;;19.59;47.63
53679;BME280;40119;52.030;4.708;2022-08-25T05:44:59;101615.16;;;23.80;41.09
53679;BME280;40119;52.030;4.708;2022-08-25T05:47:04;101611.52;;;24.35;39.32
53679;BME280;40119;52.030;4.708;2022-08-25T05:49:08;101617.10;;;21.78;43.54
53679;BME280;40119;52.030;4.708;2022-08-25T05:51:13;101617.72;;;23.44;41.04
53679;BME280;40119;52.030;4.708;2022-08-25T05:53:18;101618.43;;;22.62;42.57
53679;BME280;40119;52.030;4.708;2022-08-25T05:55:23;101616.20;;;25.30;38.30
53679;BME280;40119;52.030;4.708;2022-08-25T05:57:27;101627.51;;;23.82;40.58
53679;BME280;40119;52.030;4.708;2022-08-25T05:59:32;101622.80;;;25.67;37.28
53679;BME280;40119;52.030;4.708;2022-08-25T06:01:36;101618.51;;;26.92;35.02
53679;BME280;40119;52.030;4.708;2022-08-25T06:03:40;101617.93;;;25.37;37.45
53679;BME280;40119;52.030;4.708;2022-08-25T06:05:45;101614.72;;;26.70;35.58
53679;BME280;40119;52.030;4.708;2022-08-25T06:07:51;101618.22;;;22.99;41.56
53679;BME280;40119;52.030;4.708;2022-08-25T06:09:55;101616.28;;;22.92;42.40
53679;BME280;40119;52.030;4.708;2022-08-25T06:11:59;101616.60;;;22.98;41.54
53679;BME280;40119;52.030;4.708;2022-08-25T06:14:04;101617.01;;;23.97;40.39
53679;BME280;40119;52.030;4.708;2022-08-25T06:16:09;101608.90;;;25.15;37.77
53679;BME280;40119;52.030;4.708;2022-08-25T06:18:13;101607.55;;;26.24;36.29
53679;BME280;40119;52.030;4.708;2022-08-25T06:20:19;101612.82;;;24.14;39.25
53679;BME280;40119;52.030;4.708;2022-08-25T06:22:24;101604.21;;;25.58;36.52
53679;BME280;40119;52.030;4.708;2022-08-25T06:24:29;101604.28;;;26.35;35.78
53679;BME280;40119;52.030;4.708;2022-08-25T06:26:33;101599.98;;;25.17;37.07
53679;BME280;40119;52.030;4.708;2022-08-25T06:28:38;101595.77;;;27.11;34.12
53679;BME280;40119;52.030;4.708;2022-08-25T06:30:42;101594.08;;;26.90;34.40
53679;BME280;40119;52.030;4.708;2022-08-25T06:32:49;101596.16;;;24.46;37.92
53679;BME280;40119;52.030;4.708;2022-08-25T06:34:58;101599.15;;;24.47;39.24
53679;BME280;40119;52.030;4.708;2022-08-25T06:37:02;101606.29;;;23.13;40.00
53679;BME280;40119;52.030;4.708;2022-08-25T06:39:07;101604.32;;;25.37;37.54
53679;BME280;40119;52.030;4.708;2022-08-25T06:41:12;101603.97;;;25.41;37.89
53679;BME280;40119;52.030;4.708;2022-08-25T06:43:17;101606.11;;;24.57;38.27
53679;BME280;40119;52.030;4.708;2022-08-25T06:45:22;101601.61;;;25.77;36.41
53679;BME280;40119;52.030;4.708;2022-08-25T06:47:27;101604.48;;;25.80;36.13
53679;BME280;40119;52.030;4.708;2022-08-25T06:49:31;101608.46;;;27.27;34.06
53679;BME280;40119;52.030;4.708;2022-08-25T06:51:36;101610.03;;;26.32;35.06
53679;BME280;40119;52.030;4.708;2022-08-25T06:53:40;101609.55;;;27.30;34.14
53679;BME280;40119;52.030;4.708;2022-08-25T06:55:55;101608.68;;;28.21;32.97
53679;BME280;40119;52.030;4.708;2022-08-25T06:57:59;101606.40;;;25.91;36.28
53679;BME280;40119;52.030;4.708;2022-08-25T07:00:06;101606.89;;;26.29;35.69
53679;BME280;40119;52.030;4.708;2022-08-25T07:02:10;101611.89;;;24.25;38.86
53679;BME280;40119;52.030;4.708;2022-08-25T07:04:14;101608.00;;;26.13;36.05
53679;BME280;40119;52.030;4.708;2022-08-25T07:06:19;101607.49;;;25.34;37.13
53679;BME280;40119;52.030;4.708;2022-08-25T07:08:25;101603.40;;;25.02;37.49
53679;BME280;40119;52.030;4.708;2022-08-25T07:10:29;101601.61;;;27.15;34.88
53679;BME280;40119;52.030;4.708;2022-08-25T07:12:34;101599.81;;;25.90;36.43
53679;BME280;40119;52.030;4.708;2022-08-25T07:14:38;101598.40;;;25.93;35.74
53679;BME280;40119;52.030;4.708;2022-08-25T07:16:43;101599.06;;;26.80;34.32
53679;BME280;40119;52.030;4.708;2022-08-25T07:18:48;101599.98;;;22.87;40.97
53679;BME280;40119;52.030;4.708;2022-08-25T07:20:52;101600.65;;;25.38;37.33
53679;BME280;40119;52.030;4.708;2022-08-25T07:22:57;101606.22;;;22.71;40.87
53679;BME280;40119;52.030;4.708;2022-08-25T07:25:01;101608.10;;;23.36;40.18
53679;BME280;40119;52.030;4.708;2022-08-25T07:27:06;101603.47;;;25.60;36.47
53679;BME280;40119;52.030;4.708;2022-08-25T07:29:12;101606.75;;;23.15;39.70
53679;BME280;40119;52.030;4.708;2022-08-25T07:31:17;101595.76;;;26.00;36.20
53679;BME280;40119;52.030;4.708;2022-08-25T07:33:22;101593.75;;;26.67;35.05
53679;BME280;40119;52.030;4.708;2022-08-25T07:35:26;101594.74;;;26.84;34.61
53679;BME280;40119;52.030;4.708;2022-08-25T07:37:31;101597.28;;;26.89;34.29
53679;BME280;40119;52.030;4.708;2022-08-25T07:39:35;101595.72;;;26.69;34.75
53679;BME280;40119;52.030;4.708;2022-08-25T07:41:41;101594.43;;;26.31;34.84
53679;BME280;40119;52.030;4.708;2022-08-25T07:43:45;101592.88;;;26.57;34.32
53679;BME280;40119;52.030;4.708;2022-08-25T07:45:49;101589.96;;;27.25;33.92
53679;BME280;40119;52.030;4.708;2022-08-25T07:47:54;101594.74;;;25.04;36.63
53679;BME280;40119;52.030;4.708;2022-08-25T07:49:59;101598.87;;;25.65;36.39
53679;BME280;40119;52.030;4.708;2022-08-25T07:52:03;101600.21;;;24.35;37.40
53679;BME280;40119;52.030;4.708;2022-08-25T07:54:08;101602.32;;;25.73;36.44
53679;BME280;40119;52.030;4.708;2022-08-25T07:56:14;101597.25;;;26.35;34.58
53679;BME280;40119;52.030;4.708;2022-08-25T07:58:19;101598.88;;;26.03;35.26
53679;BME280;40119;52.030;4.708;2022-08-25T08:00:25;101602.16;;;23.47;38.80
53679;BME280;40119;52.030;4.708;2022-08-25T08:02:30;101600.46;;;27.54;33.78
53679;BME280;40119;52.030;4.708;2022-08-25T08:04:35;101603.79;;;24.74;36.93
53679;BME280;40119;52.030;4.708;2022-08-25T08:06:39;101605.69;;;27.95;32.75
53679;BME280;40119;52.030;4.708;2022-08-25T08:08:46;101604.59;;;25.24;36.47
53679;BME280;40119;52.030;4.708;2022-08-25T08:10:50;101603.35;;;29.37;32.02
53679;BME280;40119;52.030;4.708;2022-08-25T08:12:55;101606.28;;;26.49;35.36
53679;BME280;40119;52.030;4.708;2022-08-25T08:14:59;101607.71;;;26.31;36.18
53679;BME280;40119;52.030;4.708;2022-08-25T08:17:05;101605.93;;;27.94;33.55
53679;BME280;40119;52.030;4.708;2022-08-25T08:19:09;101601.16;;;26.64;34.60
53679;BME280;40119;52.030;4.708;2022-08-25T08:21:16;101599.66;;;26.81;34.23
53679;BME280;40119;52.030;4.708;2022-08-25T08:23:22;101602.27;;;26.66;35.84
53679;BME280;40119;52.030;4.708;2022-08-25T08:25:27;101596.41;;;28.75;31.82
53679;BME280;40119;52.030;4.708;2022-08-25T08:27:31;101598.78;;;27.33;33.63
53679;BME280;40119;52.030;4.708;2022-08-25T08:29:37;101598.38;;;27.41;31.53
53679;BME280;40119;52.030;4.708;2022-08-25T08:31:42;101596.58;;;26.92;34.10
53679;BME280;40119;52.030;4.708;2022-08-25T08:33:47;101597.28;;;24.83;36.16
53679;BME280;40119;52.030;4.708;2022-08-25T08:35:56;101595.12;;;29.27;31.03
53679;BME280;40119;52.030;4.708;2022-08-25T08:38:00;101593.86;;;29.82;29.19
53679;BME280;40119;52.030;4.708;2022-08-25T08:40:06;101599.30;;;31.19;28.94
53679;BME280;40119;52.030;4.708;2022-08-25T08:42:22;101596.72;;;29.05;30.73
53679;BME280;40119;52.030;4.708;2022-08-25T08:44:40;101594.81;;;30.92;28.79
53679;BME280;40119;52.030;4.708;2022-08-25T08:46:51;101594.93;;;30.42;29.15
53679;BME280;40119;52.030;4.708;2022-08-25T08:49:01;101596.26;;;29.88;31.54
53679;BME280;40119;52.030;4.708;2022-08-25T08:51:17;101599.96;;;28.52;32.74
53679;BME280;40119;52.030;4.708;2022-08-25T08:53:28;101597.35;;;28.16;31.38
53679;BME280;40119;52.030;4.708;2022-08-25T08:55:38;101599.83;;;31.35;28.65
53679;BME280;40119;52.030;4.708;2022-08-25T08:57:46;101599.20;;;30.19;28.44
53679;BME280;40119;52.030;4.708;2022-08-25T08:59:56;101601.35;;;30.27;27.80
53679;BME280;40119;52.030;4.708;2022-08-25T09:02:11;101601.88;;;31.21;28.67
53679;BME280;40119;52.030;4.708;2022-08-25T09:04:21;101599.13;;;30.45;28.72
53679;BME280;40119;52.030;4.708;2022-08-25T09:06:31;101597.99;;;29.59;29.07
53679;BME280;40119;52.030;4.708;2022-08-25T09:08:37;101605.11;;;27.75;32.13
53679;BME280;40119;52.030;4.708;2022-08-25T09:10:53;101594.35;;;30.32;29.06
53679;BME280;40119;52.030;4.708;2022-08-25T09:13:05;101591.04;;;31.81;27.28
53679;BME280;40119;52.030;4.708;2022-08-25T09:15:16;101588.59;;;30.89;28.77
53679;BME280;40119;52.030;4.708;2022-08-25T09:17:37;101591.13;;;27.98;32.06
53679;BME280;40119;52.030;4.708;2022-08-25T09:20:02;101589.59;;;28.43;30.15
53679;BME280;40119;52.030;4.708;2022-08-25T09:22:19;101589.78;;;30.99;28.10
53679;BME280;40119;52.030;4.708;2022-08-25T09:24:40;101590.43;;;28.73;29.40
53679;BME280;40119;52.030;4.708;2022-08-25T09:27:01;101595.42;;;30.48;27.95
53679;BME280;40119;52.030;4.708;2022-08-25T09:29:11;101590.46;;;28.19;31.87
53679;BME280;40119;52.030;4.708;2022-08-25T09:31:20;101592.91;;;29.92;31.75
53679;BME280;40119;52.030;4.708;2022-08-25T09:33:27;101591.90;;;28.13;30.88
53679;BME280;40119;52.030;4.708;2022-08-25T09:35:34;101590.08;;;28.98;28.79
53679;BME280;40119;52.030;4.708;2022-08-25T09:37:39;101587.84;;;28.83;30.70
53679;BME280;40119;52.030;4.708;2022-08-25T09:39:45;101584.59;;;29.60;29.43
53679;BME280;40119;52.030;4.708;2022-08-25T09:41:51;101582.99;;;32.75;25.77
53679;BME280;40119;52.030;4.708;2022-08-25T09:43:56;101583.66;;;29.67;31.12
53679;BME280;40119;52.030;4.708;2022-08-25T09:46:02;101576.36;;;31.04;26.07
53679;BME280;40119;52.030;4.708;2022-08-25T09:48:22;101579.03;;;32.19;25.68
53679;BME280;40119;52.030;4.708;2022-08-25T09:50:30;101577.97;;;32.03;26.14
53679;BME280;40119;52.030;4.708;2022-08-25T09:52:37;101578.43;;;28.08;30.48
53679;BME280;40119;52.030;4.708;2022-08-25T09:54:42;101579.86;;;27.85;30.32
53679;BME280;40119;52.030;4.708;2022-08-25T09:56:49;101576.96;;;32.03;27.01
53679;BME280;40119;52.030;4.708;2022-08-25T09:58:55;101573.58;;;32.31;24.91
53679;BME280;40119;52.030;4.708;2022-08-25T10:01:02;101568.58;;;30.68;26.35
53679;BME280;40119;52.030;4.708;2022-08-25T10:03:19;101572.60;;;27.94;29.97
53679;BME280;40119;52.030;4.708;2022-08-25T10:05:25;101570.25;;;28.29;28.91
53679;BME280;40119;52.030;4.708;2022-08-25T10:07:38;101565.95;;;30.13;27.08
53679;BME280;40119;52.030;4.708;2022-08-25T10:09:53;101565.24;;;31.21;25.54
53679;BME280;40119;52.030;4.708;2022-08-25T10:11:59;101565.37;;;31.97;25.65
53679;BME280;40119;52.030;4.708;2022-08-25T10:14:14;101566.09;;;31.94;26.46
53679;BME280;40119;52.030;4.708;2022-08-25T10:16:24;101562.07;;;32.59;24.03
53679;BME280;40119;52.030;4.708;2022-08-25T10:18:29;101562.81;;;31.08;25.62
53679;BME280;40119;52.030;4.708;2022-08-25T10:20:33;101557.08;;;30.03;26.77
53679;BME280;40119;52.030;4.708;2022-08-25T10:22:39;101553.74;;;32.53;25.42
53679;BME280;40119;52.030;4.708;2022-08-25T10:24:44;101553.29;;;32.25;25.71
53679;BME280;40119;52.030;4.708;2022-08-25T10:26:56;101552.45;;;30.88;26.74
53679;BME280;40119;52.030;4.708;2022-08-25T10:29:15;101541.23;;;35.07;22.18
53679;BME280;40119;52.030;4.708;2022-08-25T10:31:30;101541.27;;;32.32;24.31
53679;BME280;40119;52.030;4.708;2022-08-25T10:33:48;101541.59;;;32.64;25.22
53679;BME280;40119;52.030;4.708;2022-08-25T10:36:05;101541.51;;;31.27;24.50
53679;BME280;40119;52.030;4.708;2022-08-25T10:38:22;101540.66;;;27.75;28.91
53679;BME280;40119;52.030;4.708;2022-08-25T10:40:35;101534.57;;;32.07;26.62
53679;BME280;40119;52.030;4.708;2022-08-25T10:42:56;101537.00;;;30.83;26.04
53679;BME280;40119;52.030;4.708;2022-08-25T10:45:15;101531.69;;;34.22;22.85
53679;BME280;40119;52.030;4.708;2022-08-25T10:47:42;101530.82;;;33.66;25.10
53679;BME280;40119;52.030;4.708;2022-08-25T10:49:52;101529.72;;;34.72;22.40
53679;BME280;40119;52.030;4.708;2022-08-25T10:52:02;101524.92;;;34.50;23.62
53679;BME280;40119;52.030;4.708;2022-08-25T10:54:22;101523.70;;;34.94;21.96
53679;BME280;40119;52.030;4.708;2022-08-25T10:56:33;101522.68;;;34.16;21.79
53679;BME280;40119;52.030;4.708;2022-08-25T10:58:57;101518.38;;;32.37;21.95
53679;BME280;40119;52.030;4.708;2022-08-25T11:01:14;101510.35;;;36.31;19.14